sensor_id;sensor_type;location;lat;lon;timestamp;temperature;humidity
13606;DHT22;6874;52.084;5.090;2022-08-11T00:01:48;23.00;63.40
13606;DHT22;6874;52.084;5.090;2022-08-11T00:04:16;23.00;62.70
13606;DHT22;6874;52.084;5.090;2022-08-11T00:06:45;23.00;62.80
13606;DHT22;6874;52.084;5.090;2022-08-11T00:09:16;23.00;62.70
13606;DHT22;6874;52.084;5.090;2022-08-11T00:11:48;23.00;63.40
13606;DHT22;6874;52.084;5.090;2022-08-11T00:14:21;22.90;62.60
13606;DHT22;6874;52.084;5.090;2022-08-11T00:17:02;22.90;62.70
13606;DHT22;6874;52.084;5.090;2022-08-11T00:19:31;22.80;63.00
13606;DHT22;6874;52.084;5.090;2022-08-11T00:21:57;22.80;63.30
13606;DHT22;6874;52.084;5.090;2022-08-11T00:24:24;22.80;63.30
13606;DHT22;6874;52.084;5.090;2022-08-11T00:26:53;22.70;63.10
13606;DHT22;6874;52.084;5.090;2022-08-11T00:29:20;22.70;62.40
13606;DHT22;6874;52.084;5.090;2022-08-11T00:31:48;22.70;62.90
13606;DHT22;6874;52.084;5.090;2022-08-11T00:34:17;22.60;62.90
13606;DHT22;6874;52.084;5.090;2022-08-11T00:39:21;22.60;63.10
13606;DHT22;6874;52.084;5.090;2022-08-11T00:44:43;22.60;63.30
13606;DHT22;6874;52.084;5.090;2022-08-11T00:53:36;22.40;63.00
13606;DHT22;6874;52.084;5.090;2022-08-11T01:02:18;22.30;63.00
13606;DHT22;6874;52.084;5.090;2022-08-11T01:10:53;22.20;63.00
13606;DHT22;6874;52.084;5.090;2022-08-11T01:42:22;21.80;63.40
13606;DHT22;6874;52.084;5.090;2022-08-11T01:53:44;21.70;63.60
13606;DHT22;6874;52.084;5.090;2022-08-11T01:59:38;21.60;63.30
13606;DHT22;6874;52.084;5.090;2022-08-11T02:11:22;21.50;63.80
13606;DHT22;6874;52.084;5.090;2022-08-11T02:14:14;21.50;64.10
13606;DHT22;6874;52.084;5.090;2022-08-11T02:17:17;21.40;63.80
13606;DHT22;6874;52.084;5.090;2022-08-11T02:19:53;21.40;63.70
13606;DHT22;6874;52.084;5.090;2022-08-11T02:22:54;21.40;63.40
13606;DHT22;6874;52.084;5.090;2022-08-11T02:26:17;21.40;64.10
13606;DHT22;6874;52.084;5.090;2022-08-11T02:39:55;21.20;63.60
13606;DHT22;6874;52.084;5.090;2022-08-11T02:45:49;21.20;64.20
13606;DHT22;6874;52.084;5.090;2022-08-11T02:51:26;21.10;63.70
13606;DHT22;6874;52.084;5.090;2022-08-11T02:54:43;21.10;63.20
13606;DHT22;6874;52.084;5.090;2022-08-11T02:57:37;21.10;63.60
13606;DHT22;6874;52.084;5.090;2022-08-11T03:00:13;21.00;63.40
13606;DHT22;6874;52.084;5.090;2022-08-11T03:16:24;20.90;63.40
13606;DHT22;6874;52.084;5.090;2022-08-11T03:19:45;20.90;63.70
13606;DHT22;6874;52.084;5.090;2022-08-11T03:33:40;20.70;63.20
13606;DHT22;6874;52.084;5.090;2022-08-11T03:36:50;20.70;63.40
13606;DHT22;6874;52.084;5.090;2022-08-11T03:39:56;20.70;63.40
13606;DHT22;6874;52.084;5.090;2022-08-11T03:42:32;20.70;63.40
13606;DHT22;6874;52.084;5.090;2022-08-11T03:45:32;20.70;63.20
13606;DHT22;6874;52.084;5.090;2022-08-11T03:48:20;20.60;63.10
13606;DHT22;6874;52.084;5.090;2022-08-11T03:50:54;20.60;63.60
13606;DHT22;6874;52.084;5.090;2022-08-11T04:31:34;20.30;63.60
13606;DHT22;6874;52.084;5.090;2022-08-11T04:40:32;20.30;64.10
13606;DHT22;6874;52.084;5.090;2022-08-11T04:52:01;20.20;63.80
13606;DHT22;6874;52.084;5.090;2022-08-11T04:55:31;20.20;64.00
13606;DHT22;6874;52.084;5.090;2022-08-11T04:58:47;20.20;63.70
13606;DHT22;6874;52.084;5.090;2022-08-11T05:13:58;20.10;64.10
13606;DHT22;6874;52.084;5.090;2022-08-11T05:16:55;20.10;64.20
13606;DHT22;6874;52.084;5.090;2022-08-11T05:19:45;20.10;64.70
13606;DHT22;6874;52.084;5.090;2022-08-11T05:22:30;20.10;64.00
13606;DHT22;6874;52.084;5.090;2022-08-11T05:25:24;20.00;64.20
13606;DHT22;6874;52.084;5.090;2022-08-11T05:28:34;20.00;64.10
13606;DHT22;6874;52.084;5.090;2022-08-11T05:31:24;20.00;63.70
13606;DHT22;6874;52.084;5.090;2022-08-11T05:34:27;20.00;64.00
13606;DHT22;6874;52.084;5.090;2022-08-11T05:37:39;20.00;64.10
13606;DHT22;6874;52.084;5.090;2022-08-11T05:40:10;20.00;64.30
13606;DHT22;6874;52.084;5.090;2022-08-11T05:43:01;20.00;64.30
13606;DHT22;6874;52.084;5.090;2022-08-11T05:46:06;19.90;63.90
13606;DHT22;6874;52.084;5.090;2022-08-11T05:48:51;20.00;63.90
13606;DHT22;6874;52.084;5.090;2022-08-11T05:51:40;19.90;64.00
13606;DHT22;6874;52.084;5.090;2022-08-11T05:54:27;19.90;63.70
13606;DHT22;6874;52.084;5.090;2022-08-11T05:57:20;19.90;64.10
13606;DHT22;6874;52.084;5.090;2022-08-11T05:59:47;19.90;64.10
13606;DHT22;6874;52.084;5.090;2022-08-11T06:02:14;19.90;63.90
13606;DHT22;6874;52.084;5.090;2022-08-11T06:04:40;19.90;63.90
13606;DHT22;6874;52.084;5.090;2022-08-11T06:07:08;19.90;63.90
13606;DHT22;6874;52.084;5.090;2022-08-11T06:09:45;19.90;64.00
13606;DHT22;6874;52.084;5.090;2022-08-11T06:12:24;19.90;64.40
13606;DHT22;6874;52.084;5.090;2022-08-11T06:14:54;19.90;63.90
13606;DHT22;6874;52.084;5.090;2022-08-11T06:17:27;19.90;64.00
13606;DHT22;6874;52.084;5.090;2022-08-11T06:20:01;19.90;64.00
13606;DHT22;6874;52.084;5.090;2022-08-11T06:22:27;19.90;64.40
13606;DHT22;6874;52.084;5.090;2022-08-11T06:24:58;19.90;64.60
13606;DHT22;6874;52.084;5.090;2022-08-11T06:27:28;19.90;64.40
13606;DHT22;6874;52.084;5.090;2022-08-11T06:29:54;19.90;64.30
13606;DHT22;6874;52.084;5.090;2022-08-11T06:32:24;19.90;64.20
13606;DHT22;6874;52.084;5.090;2022-08-11T06:40:55;19.90;63.90
13606;DHT22;6874;52.084;5.090;2022-08-11T06:43:51;19.90;64.10
13606;DHT22;6874;52.084;5.090;2022-08-11T06:46:30;19.90;63.90
13606;DHT22;6874;52.084;5.090;2022-08-11T06:48:59;20.00;64.20
13606;DHT22;6874;52.084;5.090;2022-08-11T06:51:27;19.90;64.20
13606;DHT22;6874;52.084;5.090;2022-08-11T06:53:55;20.00;64.20
13606;DHT22;6874;52.084;5.090;2022-08-11T06:56:35;19.90;64.10
13606;DHT22;6874;52.084;5.090;2022-08-11T06:59:22;20.00;63.90
13606;DHT22;6874;52.084;5.090;2022-08-11T07:04:48;20.00;64.10
13606;DHT22;6874;52.084;5.090;2022-08-11T07:13:51;20.00;64.30
13606;DHT22;6874;52.084;5.090;2022-08-11T07:16:40;20.00;64.80
13606;DHT22;6874;52.084;5.090;2022-08-11T07:19:08;20.00;64.30
13606;DHT22;6874;52.084;5.090;2022-08-11T07:21:54;20.10;64.00
13606;DHT22;6874;52.084;5.090;2022-08-11T07:24:54;20.10;64.40
13606;DHT22;6874;52.084;5.090;2022-08-11T07:27:48;20.10;64.40
13606;DHT22;6874;52.084;5.090;2022-08-11T07:30:39;20.10;64.40
13606;DHT22;6874;52.084;5.090;2022-08-11T07:33:05;20.20;64.70
13606;DHT22;6874;52.084;5.090;2022-08-11T07:35:41;20.30;64.90
13606;DHT22;6874;52.084;5.090;2022-08-11T07:38:13;20.30;64.70
13606;DHT22;6874;52.084;5.090;2022-08-11T07:40:42;20.30;64.70
13606;DHT22;6874;52.084;5.090;2022-08-11T07:43:08;20.40;64.50
13606;DHT22;6874;52.084;5.090;2022-08-11T07:45:35;20.50;64.40
13606;DHT22;6874;52.084;5.090;2022-08-11T07:48:22;20.50;64.30
13606;DHT22;6874;52.084;5.090;2022-08-11T07:51:06;20.60;64.20
13606;DHT22;6874;52.084;5.090;2022-08-11T07:53:51;20.70;64.30
13606;DHT22;6874;52.084;5.090;2022-08-11T07:56:17;20.80;64.30
13606;DHT22;6874;52.084;5.090;2022-08-11T07:58:44;20.80;64.20
13606;DHT22;6874;52.084;5.090;2022-08-11T08:01:29;20.90;64.10
13606;DHT22;6874;52.084;5.090;2022-08-11T08:04:16;21.00;64.10
13606;DHT22;6874;52.084;5.090;2022-08-11T08:07:02;21.10;64.10
13606;DHT22;6874;52.084;5.090;2022-08-11T08:09:48;21.20;64.00
13606;DHT22;6874;52.084;5.090;2022-08-11T08:12:33;21.20;64.00
13606;DHT22;6874;52.084;5.090;2022-08-11T08:15:20;21.30;64.00
13606;DHT22;6874;52.084;5.090;2022-08-11T08:18:06;21.40;64.10
13606;DHT22;6874;52.084;5.090;2022-08-11T08:20:47;21.50;64.40
13606;DHT22;6874;52.084;5.090;2022-08-11T08:23:26;21.60;64.50
13606;DHT22;6874;52.084;5.090;2022-08-11T08:25:59;21.70;64.40
13606;DHT22;6874;52.084;5.090;2022-08-11T08:28:26;21.70;64.40
13606;DHT22;6874;52.084;5.090;2022-08-11T08:30:52;21.90;64.40
13606;DHT22;6874;52.084;5.090;2022-08-11T08:33:26;21.90;64.10
13606;DHT22;6874;52.084;5.090;2022-08-11T08:35:57;22.00;64.10
13606;DHT22;6874;52.084;5.090;2022-08-11T08:38:47;22.10;64.10
13606;DHT22;6874;52.084;5.090;2022-08-11T08:41:16;22.20;63.90
13606;DHT22;6874;52.084;5.090;2022-08-11T08:43:47;22.30;63.90
13606;DHT22;6874;52.084;5.090;2022-08-11T08:46:19;22.30;63.70
13606;DHT22;6874;52.084;5.090;2022-08-11T08:48:47;22.40;63.80
13606;DHT22;6874;52.084;5.090;2022-08-11T08:51:13;22.50;63.80
13606;DHT22;6874;52.084;5.090;2022-08-11T08:54:05;22.50;63.70
13606;DHT22;6874;52.084;5.090;2022-08-11T08:56:32;22.60;63.70
13606;DHT22;6874;52.084;5.090;2022-08-11T08:59:01;22.70;63.70
13606;DHT22;6874;52.084;5.090;2022-08-11T09:01:34;22.70;63.80
13606;DHT22;6874;52.084;5.090;2022-08-11T09:04:03;22.80;63.70
13606;DHT22;6874;52.084;5.090;2022-08-11T09:06:31;22.90;63.80
13606;DHT22;6874;52.084;5.090;2022-08-11T09:08:58;23.00;63.80
13606;DHT22;6874;52.084;5.090;2022-08-11T09:11:24;23.10;64.00
13606;DHT22;6874;52.084;5.090;2022-08-11T09:14:10;23.10;63.50
13606;DHT22;6874;52.084;5.090;2022-08-11T09:16:37;23.30;63.40
13606;DHT22;6874;52.084;5.090;2022-08-11T09:19:03;23.40;63.20
13606;DHT22;6874;52.084;5.090;2022-08-11T09:21:30;23.50;62.90
13606;DHT22;6874;52.084;5.090;2022-08-11T09:23:57;23.60;63.20
13606;DHT22;6874;52.084;5.090;2022-08-11T09:26:43;23.70;62.80
13606;DHT22;6874;52.084;5.090;2022-08-11T09:29:32;23.90;62.50
13606;DHT22;6874;52.084;5.090;2022-08-11T09:31:58;24.00;62.00
13606;DHT22;6874;52.084;5.090;2022-08-11T09:34:24;24.20;62.20
13606;DHT22;6874;52.084;5.090;2022-08-11T09:36:53;24.30;61.80
13606;DHT22;6874;52.084;5.090;2022-08-11T09:39:40;24.50;61.60
13606;DHT22;6874;52.084;5.090;2022-08-11T09:42:25;24.70;61.30
13606;DHT22;6874;52.084;5.090;2022-08-11T09:45:11;24.90;61.20
13606;DHT22;6874;52.084;5.090;2022-08-11T09:47:38;25.10;61.00
13606;DHT22;6874;52.084;5.090;2022-08-11T09:50:05;25.20;60.50
13606;DHT22;6874;52.084;5.090;2022-08-11T09:52:38;25.40;60.50
13606;DHT22;6874;52.084;5.090;2022-08-11T09:55:05;25.60;61.10
13606;DHT22;6874;52.084;5.090;2022-08-11T09:57:43;25.70;60.40
13606;DHT22;6874;52.084;5.090;2022-08-11T10:00:33;25.90;60.60
13606;DHT22;6874;52.084;5.090;2022-08-11T10:03:05;26.10;60.10
13606;DHT22;6874;52.084;5.090;2022-08-11T10:05:32;26.20;60.40
13606;DHT22;6874;52.084;5.090;2022-08-11T10:08:17;26.30;60.20
13606;DHT22;6874;52.084;5.090;2022-08-11T10:10:47;26.50;59.80
13606;DHT22;6874;52.084;5.090;2022-08-11T10:13:20;26.60;59.40
13606;DHT22;6874;52.084;5.090;2022-08-11T10:15:47;26.80;59.30
13606;DHT22;6874;52.084;5.090;2022-08-11T10:18:18;27.00;59.00
13606;DHT22;6874;52.084;5.090;2022-08-11T10:21:16;27.00;58.50
13606;DHT22;6874;52.084;5.090;2022-08-11T10:23:47;27.30;58.60
13606;DHT22;6874;52.084;5.090;2022-08-11T10:26:31;27.30;58.20
13606;DHT22;6874;52.084;5.090;2022-08-11T10:29:32;27.50;58.40
13606;DHT22;6874;52.084;5.090;2022-08-11T10:32:28;27.60;57.70
13606;DHT22;6874;52.084;5.090;2022-08-11T10:35:16;27.80;57.10
13606;DHT22;6874;52.084;5.090;2022-08-11T10:37:44;27.90;57.30
13606;DHT22;6874;52.084;5.090;2022-08-11T10:40:16;28.00;57.10
13606;DHT22;6874;52.084;5.090;2022-08-11T10:42:42;28.10;56.80
13606;DHT22;6874;52.084;5.090;2022-08-11T10:45:35;28.20;56.70
13606;DHT22;6874;52.084;5.090;2022-08-11T10:48:24;28.40;56.70
13606;DHT22;6874;52.084;5.090;2022-08-11T10:50:51;28.50;56.50
13606;DHT22;6874;52.084;5.090;2022-08-11T10:53:40;28.60;56.30
13606;DHT22;6874;52.084;5.090;2022-08-11T10:56:28;28.80;56.30
13606;DHT22;6874;52.084;5.090;2022-08-11T10:59:13;28.90;55.50
13606;DHT22;6874;52.084;5.090;2022-08-11T11:01:41;29.00;55.30
13606;DHT22;6874;52.084;5.090;2022-08-11T11:04:13;29.10;55.30
13606;DHT22;6874;52.084;5.090;2022-08-11T11:06:49;29.20;55.00
13606;DHT22;6874;52.084;5.090;2022-08-11T11:09:27;29.30;55.20
13606;DHT22;6874;52.084;5.090;2022-08-11T11:12:09;29.40;54.70
13606;DHT22;6874;52.084;5.090;2022-08-11T11:14:54;29.50;54.60
13606;DHT22;6874;52.084;5.090;2022-08-11T11:17:43;29.60;54.40
13606;DHT22;6874;52.084;5.090;2022-08-11T11:23:06;29.80;53.50
13606;DHT22;6874;52.084;5.090;2022-08-11T11:31:44;30.10;53.10
13606;DHT22;6874;52.084;5.090;2022-08-11T11:37:22;30.30;53.00
13606;DHT22;6874;52.084;5.090;2022-08-11T11:39:49;30.40;53.50
13606;DHT22;6874;52.084;5.090;2022-08-11T11:42:16;30.40;53.30
13606;DHT22;6874;52.084;5.090;2022-08-11T11:44:44;30.50;53.50
13606;DHT22;6874;52.084;5.090;2022-08-11T11:47:12;30.60;53.20
13606;DHT22;6874;52.084;5.090;2022-08-11T11:49:40;30.60;53.40
13606;DHT22;6874;52.084;5.090;2022-08-11T11:52:16;30.70;53.10
13606;DHT22;6874;52.084;5.090;2022-08-11T11:54:45;30.80;52.90
13606;DHT22;6874;52.084;5.090;2022-08-11T11:57:16;30.90;53.20
13606;DHT22;6874;52.084;5.090;2022-08-11T12:00:03;31.00;53.20
13606;DHT22;6874;52.084;5.090;2022-08-11T12:02:50;31.00;52.60
13606;DHT22;6874;52.084;5.090;2022-08-11T12:05:17;31.10;52.30
13606;DHT22;6874;52.084;5.090;2022-08-11T12:07:44;31.10;51.50
13606;DHT22;6874;52.084;5.090;2022-08-11T12:10:30;31.20;51.50
13606;DHT22;6874;52.084;5.090;2022-08-11T12:13:02;31.30;52.30
13606;DHT22;6874;52.084;5.090;2022-08-11T12:15:48;31.30;52.40
13606;DHT22;6874;52.084;5.090;2022-08-11T12:18:15;31.30;51.70
13606;DHT22;6874;52.084;5.090;2022-08-11T12:20:42;31.40;52.00
13606;DHT22;6874;52.084;5.090;2022-08-11T12:23:09;31.40;52.00
13606;DHT22;6874;52.084;5.090;2022-08-11T12:25:54;31.50;51.60
13606;DHT22;6874;52.084;5.090;2022-08-11T12:28:39;31.50;51.90
13606;DHT22;6874;52.084;5.090;2022-08-11T12:31:06;31.60;52.10
13606;DHT22;6874;52.084;5.090;2022-08-11T12:33:35;31.60;52.10
13606;DHT22;6874;52.084;5.090;2022-08-11T12:36:01;31.70;52.50
13606;DHT22;6874;52.084;5.090;2022-08-11T12:38:28;31.80;51.70
13606;DHT22;6874;52.084;5.090;2022-08-11T12:40:54;31.80;52.20
13606;DHT22;6874;52.084;5.090;2022-08-11T12:43:43;31.90;50.80
13606;DHT22;6874;52.084;5.090;2022-08-11T12:46:32;32.00;50.70
13606;DHT22;6874;52.084;5.090;2022-08-11T12:48:59;32.00;51.10
13606;DHT22;6874;52.084;5.090;2022-08-11T12:51:50;32.00;51.10
13606;DHT22;6874;52.084;5.090;2022-08-11T12:57:13;32.20;50.90
13606;DHT22;6874;52.084;5.090;2022-08-11T13:00:06;32.20;50.80
13606;DHT22;6874;52.084;5.090;2022-08-11T13:02:51;32.30;51.00
13606;DHT22;6874;52.084;5.090;2022-08-11T13:05:37;32.30;50.40
13606;DHT22;6874;52.084;5.090;2022-08-11T13:08:12;32.40;50.70
13606;DHT22;6874;52.084;5.090;2022-08-11T13:10:42;32.40;50.80
13606;DHT22;6874;52.084;5.090;2022-08-11T13:13:38;32.40;50.90
13606;DHT22;6874;52.084;5.090;2022-08-11T13:16:10;32.40;49.90
13606;DHT22;6874;52.084;5.090;2022-08-11T13:18:37;32.50;50.40
13606;DHT22;6874;52.084;5.090;2022-08-11T13:21:06;32.50;50.70
13606;DHT22;6874;52.084;5.090;2022-08-11T13:23:31;32.60;50.30
13606;DHT22;6874;52.084;5.090;2022-08-11T13:26:01;32.60;50.60
13606;DHT22;6874;52.084;5.090;2022-08-11T13:28:29;32.70;50.10
13606;DHT22;6874;52.084;5.090;2022-08-11T13:31:05;32.70;50.10
13606;DHT22;6874;52.084;5.090;2022-08-11T13:33:43;32.70;50.70
13606;DHT22;6874;52.084;5.090;2022-08-11T13:36:10;32.70;50.00
13606;DHT22;6874;52.084;5.090;2022-08-11T13:38:37;32.80;49.70
13606;DHT22;6874;52.084;5.090;2022-08-11T13:41:07;32.80;50.10
13606;DHT22;6874;52.084;5.090;2022-08-11T13:43:53;32.80;50.80
13606;DHT22;6874;52.084;5.090;2022-08-11T13:46:21;32.90;50.70
13606;DHT22;6874;52.084;5.090;2022-08-11T13:48:49;32.90;50.70
13606;DHT22;6874;52.084;5.090;2022-08-11T13:51:16;32.90;50.20
13606;DHT22;6874;52.084;5.090;2022-08-11T13:54:06;33.00;49.70
13606;DHT22;6874;52.084;5.090;2022-08-11T13:56:35;33.00;50.90
13606;DHT22;6874;52.084;5.090;2022-08-11T13:59:04;33.00;51.70
13606;DHT22;6874;52.084;5.090;2022-08-11T14:01:36;33.10;50.80
13606;DHT22;6874;52.084;5.090;2022-08-11T14:04:08;33.10;50.30
13606;DHT22;6874;52.084;5.090;2022-08-11T14:06:35;33.10;50.30
13606;DHT22;6874;52.084;5.090;2022-08-11T14:09:03;33.20;50.70
13606;DHT22;6874;52.084;5.090;2022-08-11T14:11:33;33.20;51.00
13606;DHT22;6874;52.084;5.090;2022-08-11T14:14:21;33.20;50.90
13606;DHT22;6874;52.084;5.090;2022-08-11T14:16:47;33.20;48.00
13606;DHT22;6874;52.084;5.090;2022-08-11T14:19:16;33.30;47.80
13606;DHT22;6874;52.084;5.090;2022-08-11T14:21:46;33.30;48.30
13606;DHT22;6874;52.084;5.090;2022-08-11T14:24:48;33.30;48.00
13606;DHT22;6874;52.084;5.090;2022-08-11T14:27:16;33.30;48.40
13606;DHT22;6874;52.084;5.090;2022-08-11T14:29:42;33.30;49.30
13606;DHT22;6874;52.084;5.090;2022-08-11T14:32:11;33.30;48.10
13606;DHT22;6874;52.084;5.090;2022-08-11T14:34:40;33.40;47.80
13606;DHT22;6874;52.084;5.090;2022-08-11T14:37:09;33.40;48.10
13606;DHT22;6874;52.084;5.090;2022-08-11T14:39:43;33.40;48.60
13606;DHT22;6874;52.084;5.090;2022-08-11T14:42:11;33.40;48.30
13606;DHT22;6874;52.084;5.090;2022-08-11T14:44:59;33.50;48.30
13606;DHT22;6874;52.084;5.090;2022-08-11T14:47:49;33.50;48.60
13606;DHT22;6874;52.084;5.090;2022-08-11T14:50:19;33.50;48.40
13606;DHT22;6874;52.084;5.090;2022-08-11T14:52:54;33.50;46.60
13606;DHT22;6874;52.084;5.090;2022-08-11T14:55:23;33.50;47.50
13606;DHT22;6874;52.084;5.090;2022-08-11T14:58:09;33.50;46.50
13606;DHT22;6874;52.084;5.090;2022-08-11T15:00:38;33.50;46.10
13606;DHT22;6874;52.084;5.090;2022-08-11T15:03:07;33.60;46.60
13606;DHT22;6874;52.084;5.090;2022-08-11T15:05:39;33.60;47.20
13606;DHT22;6874;52.084;5.090;2022-08-11T15:08:07;33.60;48.00
13606;DHT22;6874;52.084;5.090;2022-08-11T15:10:33;33.60;47.00
13606;DHT22;6874;52.084;5.090;2022-08-11T15:12:59;33.70;46.30
13606;DHT22;6874;52.084;5.090;2022-08-11T15:15:25;33.70;45.00
13606;DHT22;6874;52.084;5.090;2022-08-11T15:18:13;33.70;45.80
13606;DHT22;6874;52.084;5.090;2022-08-11T15:20:42;33.70;45.50
13606;DHT22;6874;52.084;5.090;2022-08-11T15:23:28;33.70;45.30
13606;DHT22;6874;52.084;5.090;2022-08-11T15:26:17;33.60;44.10
13606;DHT22;6874;52.084;5.090;2022-08-11T15:28:47;33.70;45.70
13606;DHT22;6874;52.084;5.090;2022-08-11T15:31:33;33.70;45.40
13606;DHT22;6874;52.084;5.090;2022-08-11T15:34:22;33.60;44.80
13606;DHT22;6874;52.084;5.090;2022-08-11T15:37:11;33.60;43.00
13606;DHT22;6874;52.084;5.090;2022-08-11T15:39:57;33.60;43.40
13606;DHT22;6874;52.084;5.090;2022-08-11T15:45:51;33.50;42.20
13606;DHT22;6874;52.084;5.090;2022-08-11T15:48:26;33.50;42.90
13606;DHT22;6874;52.084;5.090;2022-08-11T15:51:01;33.50;43.40
13606;DHT22;6874;52.084;5.090;2022-08-11T15:55:54;33.50;42.20
13606;DHT22;6874;52.084;5.090;2022-08-11T15:58:22;33.40;41.90
13606;DHT22;6874;52.084;5.090;2022-08-11T16:01:09;33.40;41.80
13606;DHT22;6874;52.084;5.090;2022-08-11T16:04:01;33.30;42.00
13606;DHT22;6874;52.084;5.090;2022-08-11T16:09:41;33.30;42.20
13606;DHT22;6874;52.084;5.090;2022-08-11T16:12:10;33.30;41.80
13606;DHT22;6874;52.084;5.090;2022-08-11T16:14:41;33.30;42.70
13606;DHT22;6874;52.084;5.090;2022-08-11T16:17:30;33.20;41.50
13606;DHT22;6874;52.084;5.090;2022-08-11T16:19:59;33.10;42.10
13606;DHT22;6874;52.084;5.090;2022-08-11T16:22:32;33.20;41.60
13606;DHT22;6874;52.084;5.090;2022-08-11T16:25:07;33.10;41.80
13606;DHT22;6874;52.084;5.090;2022-08-11T16:27:45;33.10;42.10
13606;DHT22;6874;52.084;5.090;2022-08-11T16:30:12;33.10;41.20
13606;DHT22;6874;52.084;5.090;2022-08-11T16:32:40;33.00;41.10
13606;DHT22;6874;52.084;5.090;2022-08-11T16:35:18;33.00;41.10
13606;DHT22;6874;52.084;5.090;2022-08-11T16:38:05;33.00;40.90
13606;DHT22;6874;52.084;5.090;2022-08-11T16:40:51;33.00;41.50
13606;DHT22;6874;52.084;5.090;2022-08-11T16:43:24;33.00;40.70
13606;DHT22;6874;52.084;5.090;2022-08-11T16:46:12;32.90;40.80
13606;DHT22;6874;52.084;5.090;2022-08-11T16:48:58;32.80;41.40
13606;DHT22;6874;52.084;5.090;2022-08-11T16:51:24;32.80;40.50
13606;DHT22;6874;52.084;5.090;2022-08-11T16:53:50;32.80;40.80
13606;DHT22;6874;52.084;5.090;2022-08-11T16:56:19;32.70;40.50
13606;DHT22;6874;52.084;5.090;2022-08-11T16:58:52;32.70;40.50
13606;DHT22;6874;52.084;5.090;2022-08-11T17:01:37;32.70;41.10
13606;DHT22;6874;52.084;5.090;2022-08-11T17:04:13;32.50;40.90
13606;DHT22;6874;52.084;5.090;2022-08-11T17:06:59;32.50;40.70
13606;DHT22;6874;52.084;5.090;2022-08-11T17:09:45;32.50;40.40
13606;DHT22;6874;52.084;5.090;2022-08-11T17:12:32;32.40;40.00
13606;DHT22;6874;52.084;5.090;2022-08-11T17:15:18;32.40;40.40
13606;DHT22;6874;52.084;5.090;2022-08-11T17:18:05;32.30;40.00
13606;DHT22;6874;52.084;5.090;2022-08-11T17:20:33;32.30;40.00
13606;DHT22;6874;52.084;5.090;2022-08-11T17:23:00;32.20;40.60
13606;DHT22;6874;52.084;5.090;2022-08-11T17:25:46;32.10;39.90
13606;DHT22;6874;52.084;5.090;2022-08-11T17:28:16;32.10;40.20
13606;DHT22;6874;52.084;5.090;2022-08-11T17:30:43;32.00;39.80
13606;DHT22;6874;52.084;5.090;2022-08-11T17:33:30;32.00;39.80
13606;DHT22;6874;52.084;5.090;2022-08-11T17:36:15;31.90;40.80
13606;DHT22;6874;52.084;5.090;2022-08-11T17:38:44;31.80;40.00
13606;DHT22;6874;52.084;5.090;2022-08-11T17:41:11;31.80;40.40
13606;DHT22;6874;52.084;5.090;2022-08-11T17:43:58;31.80;40.40
13606;DHT22;6874;52.084;5.090;2022-08-11T17:46:44;31.60;39.90
13606;DHT22;6874;52.084;5.090;2022-08-11T17:49:32;31.60;39.90
13606;DHT22;6874;52.084;5.090;2022-08-11T17:52:04;31.50;40.00
13606;DHT22;6874;52.084;5.090;2022-08-11T17:54:50;31.40;40.90
13606;DHT22;6874;52.084;5.090;2022-08-11T17:57:36;31.40;41.20
13606;DHT22;6874;52.084;5.090;2022-08-11T18:00:22;31.40;41.00
13606;DHT22;6874;52.084;5.090;2022-08-11T18:02:53;31.30;41.00
13606;DHT22;6874;52.084;5.090;2022-08-11T18:05:41;31.20;40.60
13606;DHT22;6874;52.084;5.090;2022-08-11T18:08:11;31.20;41.30
13606;DHT22;6874;52.084;5.090;2022-08-11T18:10:58;31.10;41.30
13606;DHT22;6874;52.084;5.090;2022-08-11T18:13:44;31.10;41.10
13606;DHT22;6874;52.084;5.090;2022-08-11T18:16:30;31.00;41.10
13606;DHT22;6874;52.084;5.090;2022-08-11T18:19:14;30.90;41.50
13606;DHT22;6874;52.084;5.090;2022-08-11T18:22:08;30.90;41.90
13606;DHT22;6874;52.084;5.090;2022-08-11T18:25:00;30.80;41.50
13606;DHT22;6874;52.084;5.090;2022-08-11T18:27:46;30.80;41.70
13606;DHT22;6874;52.084;5.090;2022-08-11T18:30:36;30.70;42.00
13606;DHT22;6874;52.084;5.090;2022-08-11T18:33:25;30.70;42.10
13606;DHT22;6874;52.084;5.090;2022-08-11T18:36:15;30.60;42.20
13606;DHT22;6874;52.084;5.090;2022-08-11T18:39:01;30.50;42.80
13606;DHT22;6874;52.084;5.090;2022-08-11T18:41:46;30.50;42.40
13606;DHT22;6874;52.084;5.090;2022-08-11T18:44:33;30.40;43.00
13606;DHT22;6874;52.084;5.090;2022-08-11T18:47:20;30.30;43.40
13606;DHT22;6874;52.084;5.090;2022-08-11T18:50:08;30.30;43.60
13606;DHT22;6874;52.084;5.090;2022-08-11T18:52:55;30.20;43.10
13606;DHT22;6874;52.084;5.090;2022-08-11T18:55:44;30.20;42.90
13606;DHT22;6874;52.084;5.090;2022-08-11T18:58:31;30.10;43.00
13606;DHT22;6874;52.084;5.090;2022-08-11T19:01:18;30.00;43.60
13606;DHT22;6874;52.084;5.090;2022-08-11T19:04:05;29.90;43.60
13606;DHT22;6874;52.084;5.090;2022-08-11T19:06:56;29.90;44.00
13606;DHT22;6874;52.084;5.090;2022-08-11T19:09:43;29.80;44.00
13606;DHT22;6874;52.084;5.090;2022-08-11T19:12:34;29.80;44.50
13606;DHT22;6874;52.084;5.090;2022-08-11T19:15:21;29.70;44.50
13606;DHT22;6874;52.084;5.090;2022-08-11T19:18:07;29.60;44.70
13606;DHT22;6874;52.084;5.090;2022-08-11T19:20:54;29.60;44.70
13606;DHT22;6874;52.084;5.090;2022-08-11T19:23:43;29.50;45.00
13606;DHT22;6874;52.084;5.090;2022-08-11T19:26:28;29.40;45.30
13606;DHT22;6874;52.084;5.090;2022-08-11T19:29:15;29.40;45.30
13606;DHT22;6874;52.084;5.090;2022-08-11T19:32:02;29.30;45.40
13606;DHT22;6874;52.084;5.090;2022-08-11T19:34:47;29.30;45.70
13606;DHT22;6874;52.084;5.090;2022-08-11T19:37:33;29.20;45.60
13606;DHT22;6874;52.084;5.090;2022-08-11T19:40:19;29.20;45.90
13606;DHT22;6874;52.084;5.090;2022-08-11T19:43:04;29.10;46.10
13606;DHT22;6874;52.084;5.090;2022-08-11T19:45:51;29.00;46.20
13606;DHT22;6874;52.084;5.090;2022-08-11T19:48:36;29.00;46.40
13606;DHT22;6874;52.084;5.090;2022-08-11T19:51:22;28.90;46.50
13606;DHT22;6874;52.084;5.090;2022-08-11T19:54:07;28.80;46.60
13606;DHT22;6874;52.084;5.090;2022-08-11T19:56:52;28.80;46.80
13606;DHT22;6874;52.084;5.090;2022-08-11T19:59:37;28.70;46.90
13606;DHT22;6874;52.084;5.090;2022-08-11T20:02:22;28.60;47.10
13606;DHT22;6874;52.084;5.090;2022-08-11T20:05:07;28.60;47.20
13606;DHT22;6874;52.084;5.090;2022-08-11T20:07:55;28.50;47.30
13606;DHT22;6874;52.084;5.090;2022-08-11T20:10:44;28.50;47.50
13606;DHT22;6874;52.084;5.090;2022-08-11T20:13:30;28.40;47.50
13606;DHT22;6874;52.084;5.090;2022-08-11T20:16:17;28.40;47.70
13606;DHT22;6874;52.084;5.090;2022-08-11T20:19:02;28.30;47.90
13606;DHT22;6874;52.084;5.090;2022-08-11T20:21:48;28.30;48.10
13606;DHT22;6874;52.084;5.090;2022-08-11T20:24:34;28.20;48.10
13606;DHT22;6874;52.084;5.090;2022-08-11T20:27:19;28.10;48.30
13606;DHT22;6874;52.084;5.090;2022-08-11T20:30:05;28.00;48.40
13606;DHT22;6874;52.084;5.090;2022-08-11T20:32:51;28.00;48.60
13606;DHT22;6874;52.084;5.090;2022-08-11T20:35:37;28.00;48.70
13606;DHT22;6874;52.084;5.090;2022-08-11T20:38:23;27.90;49.00
13606;DHT22;6874;52.084;5.090;2022-08-11T20:41:09;27.80;49.00